Weather at Ekibastuz Airport

Public forecast

Using degrees Celsius for public forecast. Weather courtesy of forecast.io.

Closest aviation weather report (METAR) to Ekibastuz Airport

Closest report is Pavlodar Airport, 77.8 nm (144.2 km) ENE. Retrieved 2021/06/21 04:00 UTC (13 minutes ago):

UASP 210400Z 26006MPS 9999 BKN027CB 13/07 Q1002 R21/0///70 NOSIG RMK QFE740/0987

Closest aviation forecast (TAF) to Ekibastuz Airport

Forecast is more than 12 hours old.

Closest forecast is Pavlodar Airport, 77.8 nm (144.2 km) ENE. Retrieved 2020/02/08 18:12 UTC (1 year ago):

TAF TAF UASP 081700Z 0818/0906 20005MPS 9999 OVC011 TEMPO 0818/0821 20010MPS 3100 -FZRA BKN006 TEMPO 0821/0903 1000 FZRA SNRA BKN003